Time;durP1;ratioP1;P1;durP2;ratioP2;P2;SDS_P1;SDS_P2;PMS_P1;PMS_P2;Temp;Humidity;BMP_temperature;BMP_pressure;BME280_temperature;BME280_humidity;BME280_pressure;Samples;Min_cycle;Max_cycle;Signal;HPM_P1;HPM_P2
2024/04/11 00:00:15;;;;;;;3.97;1.50;;;;;;;;;;5459037;26;20031;-65
2024/04/11 00:02:43;;;;;;;3.35;1.17;;;;;;;;;;5460617;26;20027;-64
2024/04/11 00:05:09;;;;;;;5.32;1.45;;;;;;;;;;5469132;26;20035;-65
2024/04/11 00:07:36;;;;;;;1.90;1.10;;;;;;;;;;5469673;26;20031;-66
2024/04/11 00:10:02;;;;;;;3.13;1.35;;;;;;;;;;5484959;26;20030;-65
2024/04/11 00:12:28;;;;;;;3.65;1.30;;;;;;;;;;5433729;26;20046;-65
2024/04/11 00:14:55;;;;;;;3.47;1.52;;;;;;;;;;5450156;26;20471;-64
2024/04/11 00:17:22;;;;;;;2.70;1.30;;;;;;;;;;5445347;26;20029;-64
2024/04/11 00:19:49;;;;;;;1.83;1.48;;;;;;;;;;5434095;26;20027;-65
2024/04/11 00:22:15;;;;;;;4.20;1.20;;;;;;;;;;5437570;26;20027;-64
2024/04/11 00:24:41;;;;;;;4.35;1.50;;;;;;;;;;5467312;26;20154;-66
2024/04/11 00:27:07;;;;;;;1.67;1.20;;;;;;;;;;5441452;26;20017;-64
2024/04/11 00:29:33;;;;;;;2.50;1.30;;;;;;;;;;5468615;26;20022;-65
2024/04/11 00:32:00;;;;;;;2.85;1.23;;;;;;;;;;5450665;26;20031;-66
2024/04/11 00:34:31;;;;;;;4.30;1.50;;;;;;;;;;5450428;26;20030;-65
2024/04/11 00:36:59;;;;;;;2.75;1.23;;;;;;;;;;5428075;26;20051;-65
2024/04/11 00:39:25;;;;;;;3.28;1.73;;;;;;;;;;5435098;26;20026;-64
2024/04/11 00:41:52;;;;;;;7.80;1.25;;;;;;;;;;5448580;26;20026;-64
2024/04/11 00:44:19;;;;;;;3.50;1.25;;;;;;;;;;5461659;26;20038;-64
2024/04/11 00:46:46;;;;;;;2.85;1.98;;;;;;;;;;5461716;26;20026;-64
2024/04/11 00:49:17;;;;;;;4.18;1.50;;;;;;;;;;5438948;26;20026;-64
2024/04/11 00:51:44;;;;;;;3.22;1.25;;;;;;;;;;5388693;26;20035;-64
2024/04/11 00:54:11;;;;;;;1.80;1.08;;;;;;;;;;5476422;26;20031;-64
2024/04/11 00:56:40;;;;;;;4.40;1.60;;;;;;;;;;5364101;26;20033;-64
2024/04/11 00:59:10;;;;;;;3.33;1.63;;;;;;;;;;5447866;26;20035;-65
2024/04/11 01:01:36;;;;;;;4.65;1.60;;;;;;;;;;5447661;26;20029;-64
2024/04/11 01:04:03;;;;;;;2.80;1.70;;;;;;;;;;5434575;26;20334;-65
2024/04/11 01:09:29;;;;;;;4.30;1.58;;;;;;;;;;5450311;26;20034;-65
2024/04/11 01:11:56;;;;;;;3.83;1.63;;;;;;;;;;5430364;26;20022;-65
2024/04/11 01:14:23;;;;;;;2.47;1.40;;;;;;;;;;5448862;26;20022;-64
2024/04/11 01:16:50;;;;;;;2.90;1.58;;;;;;;;;;5485325;26;20030;-64
2024/04/11 01:19:16;;;;;;;3.63;1.70;;;;;;;;;;5425004;26;20026;-64
2024/04/11 01:21:43;;;;;;;4.93;1.67;;;;;;;;;;5463217;26;20393;-64
2024/04/11 01:24:09;;;;;;;5.70;1.60;;;;;;;;;;5483379;26;20026;-65
2024/04/11 01:26:35;;;;;;;2.22;1.50;;;;;;;;;;5472536;26;20025;-64
2024/04/11 01:29:02;;;;;;;2.67;1.40;;;;;;;;;;5451796;26;20023;-65
2024/04/11 01:31:30;;;;;;;3.47;1.80;;;;;;;;;;5470201;26;20284;-65
2024/04/11 01:33:56;;;;;;;6.57;1.85;;;;;;;;;;5458507;26;20030;-64
2024/04/11 01:36:23;;;;;;;4.43;1.42;;;;;;;;;;5463584;26;20481;-64
2024/04/11 01:38:50;;;;;;;3.25;1.75;;;;;;;;;;5435096;26;20038;-64
2024/04/11 01:41:16;;;;;;;3.00;1.80;;;;;;;;;;5453075;26;20028;-64
2024/04/11 01:43:42;;;;;;;3.45;1.80;;;;;;;;;;5440973;26;20017;-65
2024/04/11 01:46:08;;;;;;;5.32;1.60;;;;;;;;;;5431132;26;20235;-64
2024/04/11 01:48:34;;;;;;;3.22;1.80;;;;;;;;;;5463506;26;20031;-64
2024/04/11 01:51:00;;;;;;;5.60;2.00;;;;;;;;;;5467941;26;20048;-65
2024/04/11 01:53:26;;;;;;;3.45;2.20;;;;;;;;;;5491119;25;20029;-64
2024/04/11 01:55:53;;;;;;;5.68;1.83;;;;;;;;;;5464699;26;20030;-65
2024/04/11 01:58:23;;;;;;;6.13;1.98;;;;;;;;;;5446765;26;20034;-65
2024/04/11 02:00:49;;;;;;;2.08;1.88;;;;;;;;;;5463775;26;20038;-65
2024/04/11 02:03:15;;;;;;;3.15;2.00;;;;;;;;;;5469631;26;20486;-64
2024/04/11 02:05:41;;;;;;;3.88;2.10;;;;;;;;;;5462083;26;20374;-64
2024/04/11 02:08:10;;;;;;;6.35;2.85;;;;;;;;;;5441536;26;20026;-65
2024/04/11 02:10:36;;;;;;;3.35;2.13;;;;;;;;;;5434646;26;20038;-65
2024/04/11 02:13:02;;;;;;;4.90;2.15;;;;;;;;;;5469382;26;20485;-64
2024/04/11 02:15:28;;;;;;;3.10;2.10;;;;;;;;;;5479122;26;20029;-65
2024/04/11 02:17:55;;;;;;;4.25;2.25;;;;;;;;;;5468057;26;20616;-65
2024/04/11 02:20:22;;;;;;;6.65;2.20;;;;;;;;;;5424279;26;20027;-66
2024/04/11 02:22:53;;;;;;;2.95;2.03;;;;;;;;;;5467094;26;20384;-65
2024/04/11 02:25:20;;;;;;;6.05;2.50;;;;;;;;;;5441984;26;20038;-64
2024/04/11 02:27:46;;;;;;;4.68;2.28;;;;;;;;;;5471172;26;20051;-66
2024/04/11 02:30:13;;;;;;;4.07;2.35;;;;;;;;;;5457809;26;20046;-65
2024/04/11 02:32:42;;;;;;;3.63;1.60;;;;;;;;;;5462585;26;20035;-64
2024/04/11 02:35:10;;;;;;;3.25;1.80;;;;;;;;;;5464627;26;20572;-66
2024/04/11 02:37:36;;;;;;;4.38;2.00;;;;;;;;;;5467474;26;20030;-65
2024/04/11 02:40:03;;;;;;;2.47;1.60;;;;;;;;;;5455390;26;20039;-65
2024/04/11 02:42:29;;;;;;;3.47;2.30;;;;;;;;;;5441533;26;20030;-65
2024/04/11 02:44:56;;;;;;;6.07;1.92;;;;;;;;;;5445592;26;20069;-65
2024/04/11 02:47:22;;;;;;;6.00;2.15;;;;;;;;;;5472667;25;20370;-64
2024/04/11 02:49:48;;;;;;;2.08;1.85;;;;;;;;;;5465946;26;20029;-64
2024/04/11 02:52:14;;;;;;;4.53;2.00;;;;;;;;;;5470440;26;20781;-64
2024/04/11 02:54:41;;;;;;;2.40;1.77;;;;;;;;;;5424909;26;20443;-67
2024/04/11 02:57:08;;;;;;;4.15;1.63;;;;;;;;;;5440365;26;20462;-67
2024/04/11 02:59:34;;;;;;;4.32;2.45;;;;;;;;;;5439398;26;20488;-65
2024/04/11 03:02:00;;;;;;;3.55;2.50;;;;;;;;;;5443662;26;20038;-65
2024/04/11 03:04:28;;;;;;;8.73;2.45;;;;;;;;;;5471161;26;20042;-64
2024/04/11 03:06:54;;;;;;;3.47;2.50;;;;;;;;;;5459794;26;20037;-65
2024/04/11 03:09:20;;;;;;;5.22;2.35;;;;;;;;;;5466603;26;20042;-65
2024/04/11 03:11:46;;;;;;;5.75;3.20;;;;;;;;;;5439551;26;20027;-64
2024/04/11 03:14:12;;;;;;;8.27;3.97;;;;;;;;;;5470072;26;20034;-65
2024/04/11 03:16:38;;;;;;;9.93;3.95;;;;;;;;;;5460431;26;20036;-64
2024/04/11 03:19:06;;;;;;;6.88;2.70;;;;;;;;;;5466845;26;20035;-65
2024/04/11 03:21:32;;;;;;;8.23;3.03;;;;;;;;;;5432159;26;20162;-64
2024/04/11 03:23:58;;;;;;;5.50;2.67;;;;;;;;;;5477437;26;20281;-65
2024/04/11 03:26:25;;;;;;;4.80;2.45;;;;;;;;;;5476867;26;20018;-65
2024/04/11 03:28:51;;;;;;;6.60;2.45;;;;;;;;;;5430805;26;20023;-65
2024/04/11 03:31:18;;;;;;;3.67;2.05;;;;;;;;;;5455817;26;20018;-65
2024/04/11 03:33:47;;;;;;;6.72;2.47;;;;;;;;;;5485939;26;20022;-65
2024/04/11 03:36:14;;;;;;;3.20;2.75;;;;;;;;;;5450215;26;20026;-66
2024/04/11 03:38:40;;;;;;;3.33;2.30;;;;;;;;;;5457905;26;20498;-66
2024/04/11 03:41:09;;;;;;;4.95;2.10;;;;;;;;;;5451498;26;20462;-66
2024/04/11 03:43:37;;;;;;;4.03;2.50;;;;;;;;;;5434167;26;20045;-65
2024/04/11 03:46:11;;;;;;;7.40;2.58;;;;;;;;;;5466535;26;20029;-66
2024/04/11 03:48:38;;;;;;;4.45;2.35;;;;;;;;;;5450461;26;20038;-65
2024/04/11 03:51:13;;;;;;;5.32;3.20;;;;;;;;;;5470070;26;20034;-65
2024/04/11 03:53:40;;;;;;;7.10;4.07;;;;;;;;;;5459227;26;20345;-64
2024/04/11 03:56:08;;;;;;;4.38;2.53;;;;;;;;;;5463362;26;20034;-65
2024/04/11 03:58:37;;;;;;;5.40;2.25;;;;;;;;;;5428741;26;20032;-64
2024/04/11 04:01:05;;;;;;;3.37;2.20;;;;;;;;;;5459003;26;20035;-64
2024/04/11 04:03:33;;;;;;;4.28;2.72;;;;;;;;;;5462873;26;20485;-64
2024/04/11 04:05:59;;;;;;;5.50;2.38;;;;;;;;;;5453440;26;20027;-65
2024/04/11 04:08:25;;;;;;;4.40;2.40;;;;;;;;;;5460902;26;20382;-64
2024/04/11 04:10:52;;;;;;;4.18;2.15;;;;;;;;;;5430798;26;20039;-64
2024/04/11 04:13:18;;;;;;;3.58;2.30;;;;;;;;;;5450351;26;20031;-65
2024/04/11 04:15:44;;;;;;;4.30;2.00;;;;;;;;;;5446319;26;20035;-65
2024/04/11 04:18:12;;;;;;;10.20;3.22;;;;;;;;;;5464311;26;20549;-64
2024/04/11 04:20:42;;;;;;;7.00;3.50;;;;;;;;;;5470901;26;20023;-65
2024/04/11 04:23:10;;;;;;;4.35;2.40;;;;;;;;;;5465199;25;20037;-64
2024/04/11 04:25:39;;;;;;;3.55;2.05;;;;;;;;;;5467691;26;20154;-63
2024/04/11 04:28:06;;;;;;;3.03;2.35;;;;;;;;;;5433654;26;20489;-66
2024/04/11 04:30:33;;;;;;;4.00;2.30;;;;;;;;;;5425865;26;20369;-65
2024/04/11 04:33:00;;;;;;;3.38;2.10;;;;;;;;;;5460564;26;20018;-65
2024/04/11 04:35:28;;;;;;;3.10;2.40;;;;;;;;;;5452871;26;20029;-63
2024/04/11 04:37:55;;;;;;;3.95;2.22;;;;;;;;;;5468573;26;20023;-63
2024/04/11 04:40:21;;;;;;;4.25;2.13;;;;;;;;;;5456929;26;20379;-64
2024/04/11 04:42:47;;;;;;;4.65;2.20;;;;;;;;;;5424504;26;20031;-64
2024/04/11 04:45:15;;;;;;;4.88;2.50;;;;;;;;;;5465828;26;20108;-64
2024/04/11 04:47:41;;;;;;;5.10;2.45;;;;;;;;;;5461962;26;20023;-64
2024/04/11 04:50:07;;;;;;;5.72;2.90;;;;;;;;;;5423761;26;20023;-63
2024/04/11 04:52:33;;;;;;;6.32;2.60;;;;;;;;;;5458622;26;20031;-63
2024/04/11 04:55:00;;;;;;;4.68;2.35;;;;;;;;;;5423055;26;20054;-63
2024/04/11 04:57:26;;;;;;;3.97;2.45;;;;;;;;;;5474576;26;20022;-64
2024/04/11 04:59:52;;;;;;;7.03;2.90;;;;;;;;;;5423335;25;20029;-65
2024/04/11 05:02:18;;;;;;;7.05;3.03;;;;;;;;;;5456044;26;20023;-63
2024/04/11 05:04:49;;;;;;;6.25;2.65;;;;;;;;;;5440509;26;19998;-63
2024/04/11 05:07:15;;;;;;;2.83;2.33;;;;;;;;;;5465502;26;20022;-64
2024/04/11 05:09:45;;;;;;;6.55;3.05;;;;;;;;;;5468335;26;20046;-63
2024/04/11 05:12:12;;;;;;;7.18;3.03;;;;;;;;;;5431148;26;20030;-64
2024/04/11 05:14:38;;;;;;;8.68;4.07;;;;;;;;;;5455025;26;20490;-64
2024/04/11 05:17:08;;;;;;;6.50;3.10;;;;;;;;;;5455760;26;20049;-65
2024/04/11 05:19:34;;;;;;;6.90;3.00;;;;;;;;;;5463925;26;20019;-64
2024/04/11 05:22:01;;;;;;;6.82;2.83;;;;;;;;;;5477084;26;20052;-67
2024/04/11 05:24:27;;;;;;;4.45;3.38;;;;;;;;;;5428806;26;20019;-66
2024/04/11 05:26:53;;;;;;;10.27;3.92;;;;;;;;;;5452515;26;20375;-67
2024/04/11 05:29:20;;;;;;;8.98;2.72;;;;;;;;;;5456819;26;20025;-65
2024/04/11 05:31:46;;;;;;;7.68;3.65;;;;;;;;;;5469182;26;20566;-63
2024/04/11 05:34:20;;;;;;;5.60;3.90;;;;;;;;;;5460913;26;20340;-63
2024/04/11 05:36:46;;;;;;;6.72;3.05;;;;;;;;;;5479285;25;20154;-64
2024/04/11 05:39:15;;;;;;;5.32;2.97;;;;;;;;;;5485015;26;20035;-63
2024/04/11 05:41:43;;;;;;;5.63;3.00;;;;;;;;;;5427986;26;20026;-62
2024/04/11 05:44:10;;;;;;;8.60;2.78;;;;;;;;;;5426478;26;20051;-63
2024/04/11 05:46:36;;;;;;;5.20;2.50;;;;;;;;;;5453770;26;20027;-61
2024/04/11 05:49:04;;;;;;;5.50;2.60;;;;;;;;;;5468532;26;21321;-63
2024/04/11 05:51:30;;;;;;;4.60;2.75;;;;;;;;;;5471528;26;20037;-62
2024/04/11 05:53:57;;;;;;;4.55;3.00;;;;;;;;;;5478171;26;20137;-63
2024/04/11 05:56:23;;;;;;;11.95;4.90;;;;;;;;;;5473819;26;20039;-63
2024/04/11 05:58:49;;;;;;;7.55;3.60;;;;;;;;;;5476999;26;20045;-63
2024/04/11 06:01:16;;;;;;;7.22;3.38;;;;;;;;;;5480542;26;20043;-63
2024/04/11 06:03:46;;;;;;;5.13;3.22;;;;;;;;;;5472909;26;20038;-62
2024/04/11 06:06:13;;;;;;;3.85;2.92;;;;;;;;;;5471586;26;20022;-63
2024/04/11 06:08:41;;;;;;;13.05;6.25;;;;;;;;;;5463937;26;20062;-63
2024/04/11 06:11:07;;;;;;;10.50;5.00;;;;;;;;;;5478526;26;20026;-62
2024/04/11 06:13:33;;;;;;;9.20;4.30;;;;;;;;;;5454467;26;20026;-64
2024/04/11 06:16:00;;;;;;;8.27;4.07;;;;;;;;;;5474526;26;20247;-63
2024/04/11 06:18:28;;;;;;;5.28;4.18;;;;;;;;;;5469625;26;20039;-63
2024/04/11 06:20:55;;;;;;;8.88;5.38;;;;;;;;;;5465537;26;20389;-65
2024/04/11 06:23:21;;;;;;;9.23;3.45;;;;;;;;;;5460604;26;20030;-65
2024/04/11 06:25:47;;;;;;;8.85;3.97;;;;;;;;;;5465669;26;20039;-65
2024/04/11 06:28:18;;;;;;;4.78;3.05;;;;;;;;;;5468921;26;20058;-65
2024/04/11 06:30:47;;;;;;;9.30;3.83;;;;;;;;;;5465737;26;20026;-65
2024/04/11 06:33:16;;;;;;;4.93;3.00;;;;;;;;;;5475225;26;20150;-66
2024/04/11 06:35:48;;;;;;;5.65;2.83;;;;;;;;;;5465904;26;20043;-65
2024/04/11 06:38:15;;;;;;;5.13;3.17;;;;;;;;;;5469581;26;20130;-65
2024/04/11 06:40:43;;;;;;;8.05;4.07;;;;;;;;;;5468444;26;20752;-65
2024/04/11 06:43:13;;;;;;;8.40;4.60;;;;;;;;;;5459622;26;20030;-66
2024/04/11 06:45:43;;;;;;;10.57;4.80;;;;;;;;;;5465429;26;20046;-64
2024/04/11 06:48:09;;;;;;;11.15;4.60;;;;;;;;;;5472668;26;20038;-64
2024/04/11 06:50:35;;;;;;;8.95;4.22;;;;;;;;;;5464344;26;20049;-64
2024/04/11 06:53:05;;;;;;;9.48;4.32;;;;;;;;;;5442433;26;20035;-65
2024/04/11 06:55:32;;;;;;;7.80;3.65;;;;;;;;;;5467958;26;20382;-65
2024/04/11 06:57:58;;;;;;;7.05;3.72;;;;;;;;;;5459185;26;20034;-65
2024/04/11 07:00:36;;;;;;;7.85;3.80;;;;;;;;;;5467034;26;20034;-65
2024/04/11 07:03:16;;;;;;;10.10;3.80;;;;;;;;;;5465832;26;20042;-65
2024/04/11 07:05:49;;;;;;;7.88;5.72;;;;;;;;;;5463808;26;20026;-64
2024/04/11 07:08:15;;;;;;;11.38;5.40;;;;;;;;;;5470940;26;20025;-65
2024/04/11 07:10:46;;;;;;;8.65;4.85;;;;;;;;;;5429451;26;20038;-66
2024/04/11 07:13:12;;;;;;;11.45;4.45;;;;;;;;;;5465067;26;20026;-65
2024/04/11 07:15:42;;;;;;;6.10;3.78;;;;;;;;;;5436829;26;20046;-66
2024/04/11 07:18:14;;;;;;;11.00;3.97;;;;;;;;;;5466899;26;20033;-65
2024/04/11 07:20:48;;;;;;;7.72;3.30;;;;;;;;;;5464150;25;20468;-65
2024/04/11 07:23:17;;;;;;;6.28;3.55;;;;;;;;;;5466613;26;20030;-66
2024/04/11 07:25:44;;;;;;;7.32;3.28;;;;;;;;;;5464749;26;20022;-65
2024/04/11 07:28:10;;;;;;;6.57;3.53;;;;;;;;;;5471557;26;20365;-65
2024/04/11 07:30:37;;;;;;;6.13;2.70;;;;;;;;;;5470570;25;20038;-66
2024/04/11 07:33:06;;;;;;;7.97;3.17;;;;;;;;;;5481765;26;20501;-65
2024/04/11 07:35:37;;;;;;;7.75;3.25;;;;;;;;;;5420892;26;20017;-66
2024/04/11 07:38:04;;;;;;;8.40;3.20;;;;;;;;;;5431948;26;20046;-65
2024/04/11 07:40:41;;;;;;;6.18;3.08;;;;;;;;;;5455450;26;20042;-66
2024/04/11 07:43:08;;;;;;;7.43;3.38;;;;;;;;;;5462890;26;20034;-66
2024/04/11 07:45:40;;;;;;;6.57;3.10;;;;;;;;;;5434644;26;20022;-65
2024/04/11 07:48:08;;;;;;;6.65;3.35;;;;;;;;;;5460597;26;20034;-65
2024/04/11 07:50:35;;;;;;;5.28;3.35;;;;;;;;;;5466799;26;20030;-64
2024/04/11 07:53:14;;;;;;;7.03;3.55;;;;;;;;;;5462544;26;20047;-66
2024/04/11 07:55:43;;;;;;;5.88;3.10;;;;;;;;;;5466495;26;20022;-65
2024/04/11 07:58:10;;;;;;;10.48;3.90;;;;;;;;;;5468435;26;20026;-65
2024/04/11 08:00:47;;;;;;;6.50;3.70;;;;;;;;;;5464849;26;20038;-64
2024/04/11 08:03:16;;;;;;;6.65;3.20;;;;;;;;;;5477818;26;19998;-65
2024/04/11 08:05:43;;;;;;;4.93;3.05;;;;;;;;;;5478633;26;20050;-65
2024/04/11 08:08:12;;;;;;;6.05;3.03;;;;;;;;;;5470318;26;20368;-66
2024/04/11 08:10:39;;;;;;;7.97;3.40;;;;;;;;;;5463868;26;20035;-64
2024/04/11 08:13:08;;;;;;;7.55;2.70;;;;;;;;;;5465097;26;20496;-65
2024/04/11 08:15:34;;;;;;;4.53;2.53;;;;;;;;;;5441285;26;20361;-66
2024/04/11 08:18:03;;;;;;;9.48;3.45;;;;;;;;;;5434025;26;20068;-64
2024/04/11 08:20:29;;;;;;;5.80;3.60;;;;;;;;;;5456625;26;20046;-65
2024/04/11 08:22:58;;;;;;;10.57;3.28;;;;;;;;;;5462238;26;20347;-64
2024/04/11 08:25:25;;;;;;;6.57;2.60;;;;;;;;;;5436306;26;20023;-65
2024/04/11 08:27:51;;;;;;;4.43;2.65;;;;;;;;;;5468193;26;20027;-65
2024/04/11 08:30:17;;;;;;;4.57;2.65;;;;;;;;;;5478391;26;20018;-65
2024/04/11 08:32:45;;;;;;;5.35;2.72;;;;;;;;;;5470277;26;20696;-66
2024/04/11 08:35:20;;;;;;;6.50;2.80;;;;;;;;;;5470031;26;20026;-65
2024/04/11 08:37:53;;;;;;;8.73;4.20;;;;;;;;;;5466378;26;20482;-61
2024/04/11 08:40:20;;;;;;;5.53;3.30;;;;;;;;;;5461334;26;20042;-64
2024/04/11 08:42:47;;;;;;;5.72;2.65;;;;;;;;;;5463472;26;20011;-65
2024/04/11 08:45:14;;;;;;;5.20;2.30;;;;;;;;;;5468260;26;20035;-64
2024/04/11 08:47:40;;;;;;;5.60;2.65;;;;;;;;;;5454683;26;20031;-65
2024/04/11 08:50:07;;;;;;;7.85;2.90;;;;;;;;;;5472047;26;20026;-65
2024/04/11 08:52:36;;;;;;;5.07;2.33;;;;;;;;;;5472295;26;20084;-65
2024/04/11 08:55:03;;;;;;;5.77;2.37;;;;;;;;;;5466845;26;20032;-64
2024/04/11 08:57:30;;;;;;;5.88;2.70;;;;;;;;;;5468535;25;20030;-65
2024/04/11 08:59:57;;;;;;;5.15;2.20;;;;;;;;;;5473393;26;20220;-63
2024/04/11 09:02:23;;;;;;;3.60;2.40;;;;;;;;;;5485571;26;20052;-63
2024/04/11 09:04:50;;;;;;;7.95;2.78;;;;;;;;;;5468441;26;20035;-64
2024/04/11 09:07:21;;;;;;;4.47;3.25;;;;;;;;;;5463241;26;20046;-65
2024/04/11 09:09:51;;;;;;;3.90;2.28;;;;;;;;;;5461277;26;20046;-65
2024/04/11 09:12:22;;;;;;;8.55;2.25;;;;;;;;;;5482895;26;20034;-65
2024/04/11 09:14:49;;;;;;;5.82;2.42;;;;;;;;;;5472464;26;20489;-65
2024/04/11 09:17:15;;;;;;;6.65;2.10;;;;;;;;;;5473002;26;20022;-65
2024/04/11 09:19:42;;;;;;;4.50;2.08;;;;;;;;;;5470052;26;20039;-65
2024/04/11 09:22:21;;;;;;;3.00;1.75;;;;;;;;;;5457083;26;20106;-65
2024/04/11 09:24:47;;;;;;;3.53;1.67;;;;;;;;;;5461308;26;20031;-64
2024/04/11 09:27:17;;;;;;;4.78;2.28;;;;;;;;;;5457926;26;20264;-64
2024/04/11 09:29:43;;;;;;;5.45;2.20;;;;;;;;;;5465676;26;20027;-64
2024/04/11 09:32:13;;;;;;;4.53;1.88;;;;;;;;;;5483410;26;20022;-64
2024/04/11 09:34:40;;;;;;;5.13;2.58;;;;;;;;;;5433433;26;20101;-63
2024/04/11 09:37:14;;;;;;;5.63;2.05;;;;;;;;;;5461299;26;20720;-65
2024/04/11 09:39:46;;;;;;;3.00;1.63;;;;;;;;;;5473849;25;20047;-64
2024/04/11 09:42:20;;;;;;;3.10;1.73;;;;;;;;;;5462034;26;20035;-64
2024/04/11 09:44:47;;;;;;;6.50;2.30;;;;;;;;;;5473098;26;20370;-64
2024/04/11 09:47:18;;;;;;;6.03;1.98;;;;;;;;;;5465424;26;20031;-64
2024/04/11 09:49:53;;;;;;;3.85;2.22;;;;;;;;;;5478966;26;20035;-65
2024/04/11 09:52:22;;;;;;;5.65;2.15;;;;;;;;;;5469389;26;20030;-65
2024/04/11 09:54:51;;;;;;;6.53;2.80;;;;;;;;;;5465236;26;20027;-66
2024/04/11 09:57:21;;;;;;;2.75;1.77;;;;;;;;;;5470814;26;20026;-65
2024/04/11 09:59:48;;;;;;;3.70;1.60;;;;;;;;;;5461460;26;20035;-64
2024/04/11 10:02:16;;;;;;;2.88;1.85;;;;;;;;;;5466300;26;20023;-65
2024/04/11 10:04:44;;;;;;;2.50;1.60;;;;;;;;;;5474809;26;20030;-65
2024/04/11 10:07:12;;;;;;;3.30;1.97;;;;;;;;;;5475496;26;20025;-65
2024/04/11 10:09:47;;;;;;;6.70;2.55;;;;;;;;;;5463930;26;20263;-65
2024/04/11 10:12:19;;;;;;;5.88;1.90;;;;;;;;;;5464475;26;20023;-66
2024/04/11 10:14:49;;;;;;;6.20;2.17;;;;;;;;;;5469897;26;20375;-65
2024/04/11 10:17:17;;;;;;;5.20;2.15;;;;;;;;;;5471286;26;20343;-65
2024/04/11 10:19:43;;;;;;;4.00;2.20;;;;;;;;;;5456242;26;20450;-65
2024/04/11 10:22:15;;;;;;;5.22;2.22;;;;;;;;;;5468674;26;20022;-65
2024/04/11 10:24:49;;;;;;;3.28;2.00;;;;;;;;;;5462329;26;20046;-65
2024/04/11 10:27:18;;;;;;;5.07;2.08;;;;;;;;;;5435237;26;20104;-65
2024/04/11 10:29:46;;;;;;;6.32;1.85;;;;;;;;;;5473149;26;20022;-65
2024/04/11 10:32:13;;;;;;;4.70;1.88;;;;;;;;;;5471222;26;20037;-65
2024/04/11 10:34:47;;;;;;;5.63;2.13;;;;;;;;;;5476874;26;20042;-65
2024/04/11 10:37:23;;;;;;;4.28;1.80;;;;;;;;;;5458256;26;20030;-65
2024/04/11 10:39:57;;;;;;;4.85;1.90;;;;;;;;;;5466883;26;20158;-65
2024/04/11 10:42:36;;;;;;;4.32;2.08;;;;;;;;;;5466476;26;20035;-65
2024/04/11 10:45:07;;;;;;;5.65;2.22;;;;;;;;;;5477776;26;20482;-65
2024/04/11 10:47:38;;;;;;;5.65;1.90;;;;;;;;;;5469163;26;20046;-65
2024/04/11 10:50:09;;;;;;;3.05;1.65;;;;;;;;;;5462491;26;20040;-64
2024/04/11 10:52:39;;;;;;;7.43;2.10;;;;;;;;;;5468687;26;20037;-66
2024/04/11 10:55:28;;;;;;;3.92;1.80;;;;;;;;;;5463366;26;20026;-66
2024/04/11 10:58:13;;;;;;;4.75;2.13;;;;;;;;;;5471038;26;20022;-64
2024/04/11 11:03:42;;;;;;;2.88;1.65;;;;;;;;;;5462554;26;20030;-65
2024/04/11 11:06:24;;;;;;;5.22;2.05;;;;;;;;;;5471837;26;20022;-66
2024/04/11 11:08:55;;;;;;;3.38;1.50;;;;;;;;;;5439213;26;20028;-65
2024/04/11 11:11:25;;;;;;;4.82;1.70;;;;;;;;;;5469603;26;20359;-64
2024/04/11 11:13:55;;;;;;;4.97;2.00;;;;;;;;;;5474847;26;20050;-65
2024/04/11 11:16:26;;;;;;;4.88;1.67;;;;;;;;;;5471059;26;20021;-64
2024/04/11 11:18:55;;;;;;;3.55;1.70;;;;;;;;;;5453725;26;20026;-65
2024/04/11 11:21:25;;;;;;;5.88;1.75;;;;;;;;;;5490143;26;20449;-65
2024/04/11 11:23:59;;;;;;;4.45;1.80;;;;;;;;;;5462675;26;20510;-65
2024/04/11 11:26:35;;;;;;;3.53;1.85;;;;;;;;;;5462537;26;20027;-66
2024/04/11 11:29:06;;;;;;;5.82;2.60;;;;;;;;;;5469749;26;20027;-65
2024/04/11 11:31:36;;;;;;;4.28;2.00;;;;;;;;;;5470611;26;20023;-66
2024/04/11 11:34:09;;;;;;;3.28;1.85;;;;;;;;;;5478253;26;20030;-66
2024/04/11 11:36:40;;;;;;;4.50;1.92;;;;;;;;;;5472392;26;20470;-65
2024/04/11 11:39:17;;;;;;;2.95;1.60;;;;;;;;;;5470473;26;20025;-65
2024/04/11 11:41:47;;;;;;;4.07;2.03;;;;;;;;;;5479348;26;20029;-65
2024/04/11 11:44:18;;;;;;;4.97;1.80;;;;;;;;;;5460391;26;20483;-65
2024/04/11 11:47:05;;;;;;;5.80;1.90;;;;;;;;;;5463312;26;20042;-66
2024/04/11 11:49:38;;;;;;;3.33;1.85;;;;;;;;;;5458181;26;20041;-67
2024/04/11 11:52:05;;;;;;;5.03;2.05;;;;;;;;;;5468592;26;20032;-66
2024/04/11 11:54:35;;;;;;;3.72;1.80;;;;;;;;;;5467106;26;20034;-66
2024/04/11 11:57:17;;;;;;;4.13;1.70;;;;;;;;;;5476339;26;20449;-66
2024/04/11 11:59:45;;;;;;;3.53;1.50;;;;;;;;;;5466518;26;20031;-66
2024/04/11 12:02:13;;;;;;;5.55;1.80;;;;;;;;;;5460919;26;20019;-66
2024/04/11 12:04:46;;;;;;;3.38;1.60;;;;;;;;;;5470056;26;20007;-65
2024/04/11 12:07:12;;;;;;;5.10;1.60;;;;;;;;;;5467089;26;20033;-66
2024/04/11 12:09:43;;;;;;;3.75;1.70;;;;;;;;;;5466611;26;20030;-67
2024/04/11 12:12:21;;;;;;;3.50;2.10;;;;;;;;;;5485918;26;20033;-67
2024/04/11 12:14:54;;;;;;;3.00;1.87;;;;;;;;;;5464807;26;20066;-66
2024/04/11 12:17:26;;;;;;;3.90;1.83;;;;;;;;;;5472068;26;20033;-65
2024/04/11 12:20:05;;;;;;;7.22;2.00;;;;;;;;;;5465193;26;20170;-67
2024/04/11 12:22:35;;;;;;;4.53;1.50;;;;;;;;;;5458206;26;20490;-66
2024/04/11 12:25:02;;;;;;;7.15;1.75;;;;;;;;;;5468394;26;20038;-66
2024/04/11 12:27:28;;;;;;;2.72;1.48;;;;;;;;;;5464928;26;20034;-67
2024/04/11 12:30:01;;;;;;;3.63;1.30;;;;;;;;;;5474046;26;20051;-67
2024/04/11 12:32:27;;;;;;;3.05;1.35;;;;;;;;;;5465702;26;20035;-67
2024/04/11 12:34:55;;;;;;;5.30;1.73;;;;;;;;;;5471085;26;20031;-66
2024/04/11 12:37:25;;;;;;;2.95;1.52;;;;;;;;;;5470232;26;20385;-67
2024/04/11 12:39:56;;;;;;;3.05;1.60;;;;;;;;;;5469055;26;20368;-66
2024/04/11 12:42:29;;;;;;;2.00;1.58;;;;;;;;;;5459198;26;20023;-66
2024/04/11 12:44:58;;;;;;;2.80;1.65;;;;;;;;;;5466475;26;20358;-67
2024/04/11 12:48:14;;;;;;;3.22;1.45;;;;;;;;;;5468845;26;20030;-66
2024/04/11 12:50:12;;;;;;;5.20;1.92;;;;;;;;;;5448095;26;20040;-65
2024/04/11 12:52:45;;;;;;;2.22;1.40;;;;;;;;;;5466660;26;20033;-65
2024/04/11 12:55:11;;;;;;;3.65;1.50;;;;;;;;;;5437504;26;20058;-67
2024/04/11 12:57:37;;;;;;;8.23;1.63;;;;;;;;;;5475130;26;20023;-65
2024/04/11 13:00:09;;;;;;;5.97;1.63;;;;;;;;;;5470406;26;20037;-66
2024/04/11 13:02:39;;;;;;;4.13;1.58;;;;;;;;;;5461598;26;20037;-67
2024/04/11 13:05:13;;;;;;;3.38;1.40;;;;;;;;;;5457926;26;20023;-67
2024/04/11 13:07:42;;;;;;;8.35;1.75;;;;;;;;;;5469595;26;20043;-67
2024/04/11 13:10:08;;;;;;;;;;;;;;;;;;5477217;26;20033;-66
2024/04/11 13:12:35;;;;;;;2.60;1.60;;;;;;;;;;5465098;26;20043;-65
2024/04/11 13:15:12;;;;;;;3.40;1.40;;;;;;;;;;5469702;26;20027;-66
2024/04/11 13:17:41;;;;;;;5.97;1.67;;;;;;;;;;5461663;26;20462;-64
2024/04/11 13:20:12;;;;;;;4.32;1.42;;;;;;;;;;5468174;25;20347;-64
2024/04/11 13:22:44;;;;;;;8.75;1.90;;;;;;;;;;5463107;26;20037;-67
2024/04/11 13:25:20;;;;;;;5.72;1.90;;;;;;;;;;5468625;26;20035;-65
2024/04/11 13:27:48;;;;;;;6.22;1.98;;;;;;;;;;5476860;26;20496;-64
2024/04/11 13:30:14;;;;;;;5.00;1.80;;;;;;;;;;5468845;26;20026;-66
2024/04/11 13:32:55;;;;;;;5.15;2.08;;;;;;;;;;5470950;26;20034;-65
2024/04/11 13:35:37;;;;;;;5.47;1.95;;;;;;;;;;5462939;26;20028;-65
2024/04/11 13:38:13;;;;;;;5.07;1.80;;;;;;;;;;5474878;26;20042;-65
2024/04/11 13:41:15;;;;;;;3.80;2.00;;;;;;;;;;5472654;26;20466;-65
2024/04/11 13:43:42;;;;;;;4.47;1.85;;;;;;;;;;5435042;26;20002;-65
2024/04/11 13:46:10;;;;;;;6.13;1.90;;;;;;;;;;5468362;26;20022;-65
2024/04/11 13:48:53;;;;;;;2.10;1.90;;;;;;;;;;5472765;26;20047;-66
2024/04/11 13:51:29;;;;;;;4.57;1.60;;;;;;;;;;5486976;26;20147;-66
2024/04/11 13:53:56;;;;;;;3.72;1.80;;;;;;;;;;5480669;26;20145;-65
2024/04/11 13:56:38;;;;;;;3.05;1.75;;;;;;;;;;5467360;26;20031;-65
2024/04/11 13:59:08;;;;;;;3.25;1.70;;;;;;;;;;5479556;26;20051;-65
2024/04/11 14:01:50;;;;;;;2.83;1.70;;;;;;;;;;5463452;26;20037;-65
2024/04/11 14:04:16;;;;;;;4.53;1.83;;;;;;;;;;5467682;26;20031;-65
2024/04/11 14:09:17;;;;;;;3.60;1.80;;;;;;;;;;5467111;26;20041;-65
2024/04/11 14:11:44;;;;;;;;;;;;;;;;;;5466054;26;20378;-65
2024/04/11 14:14:11;;;;;;;3.28;1.70;;;;;;;;;;5469763;26;19952;-65
2024/04/11 14:16:51;;;;;;;5.55;1.70;;;;;;;;;;5459512;26;20026;-65
2024/04/11 14:19:38;;;;;;;3.58;1.20;;;;;;;;;;5465745;26;20157;-65
2024/04/11 14:22:26;;;;;;;7.18;1.52;;;;;;;;;;5464877;26;20054;-66
2024/04/11 14:27:38;;;;;;;3.00;1.40;;;;;;;;;;5468452;26;20034;-66
2024/04/11 14:30:05;;;;;;;4.78;1.65;;;;;;;;;;5472476;26;20031;-65
2024/04/11 14:38:03;;;;;;;4.43;1.60;;;;;;;;;;5468223;26;20035;-66
2024/04/11 14:40:35;;;;;;;3.30;1.60;;;;;;;;;;5470175;26;20056;-65
2024/04/11 14:43:09;;;;;;;4.82;1.60;;;;;;;;;;5464527;26;20027;-65
2024/04/11 14:45:41;;;;;;;3.33;1.40;;;;;;;;;;5474850;26;20030;-65
2024/04/11 14:48:18;;;;;;;4.53;1.58;;;;;;;;;;5476739;26;20034;-65
2024/04/11 14:50:48;;;;;;;2.83;1.40;;;;;;;;;;5477097;26;20026;-64
2024/04/11 14:53:22;;;;;;;3.03;1.42;;;;;;;;;;5466930;26;20047;-64
2024/04/11 14:56:14;;;;;;;3.47;1.40;;;;;;;;;;5474429;26;20459;-65
2024/04/11 14:58:42;;;;;;;3.83;1.30;;;;;;;;;;5459418;26;20173;-65
2024/04/11 15:01:16;;;;;;;2.95;1.60;;;;;;;;;;5450116;26;20031;-65
2024/04/11 15:03:44;;;;;;;2.92;1.50;;;;;;;;;;5465348;26;20030;-65
2024/04/11 15:06:15;;;;;;;5.25;1.30;;;;;;;;;;5482306;26;20052;-66
2024/04/11 15:08:41;;;;;;;1.90;1.25;;;;;;;;;;5468125;26;20026;-66
2024/04/11 15:11:11;;;;;;;4.82;1.40;;;;;;;;;;5456881;26;20448;-65